sensor_id;sensor_type;location;lat;lon;timestamp;pressure;altitude;pressure_sealevel;temperature;humidity
11682;BME280;5897;42.640;23.310;2023-02-19T00:00:58;94146.22;;;9.10;54.05
11682;BME280;5897;42.640;23.310;2023-02-19T00:03:26;94156.72;;;9.04;54.11
11682;BME280;5897;42.640;23.310;2023-02-19T00:05:52;94152.53;;;9.03;54.57
11682;BME280;5897;42.640;23.310;2023-02-19T00:08:19;94164.34;;;8.86;55.77
11682;BME280;5897;42.640;23.310;2023-02-19T00:10:47;94165.63;;;8.78;55.52
11682;BME280;5897;42.640;23.310;2023-02-19T00:13:14;94152.75;;;8.89;55.06
11682;BME280;5897;42.640;23.310;2023-02-19T00:15:41;94165.88;;;8.87;55.35
11682;BME280;5897;42.640;23.310;2023-02-19T00:18:08;94137.63;;;8.72;55.38
11682;BME280;5897;42.640;23.310;2023-02-19T00:20:34;94139.63;;;8.68;56.13
11682;BME280;5897;42.640;23.310;2023-02-19T00:23:01;94150.84;;;8.63;56.05
11682;BME280;5897;42.640;23.310;2023-02-19T00:25:28;94134.25;;;8.68;55.75
11682;BME280;5897;42.640;23.310;2023-02-19T00:27:56;94139.78;;;8.81;55.83
11682;BME280;5897;42.640;23.310;2023-02-19T00:30:23;94141.28;;;8.85;56.90
11682;BME280;5897;42.640;23.310;2023-02-19T00:32:50;94123.41;;;8.72;57.93
11682;BME280;5897;42.640;23.310;2023-02-19T00:35:16;94125.63;;;8.77;58.37
11682;BME280;5897;42.640;23.310;2023-02-19T00:37:43;94135.34;;;8.71;58.21
11682;BME280;5897;42.640;23.310;2023-02-19T00:40:10;94118.09;;;8.68;58.92
11682;BME280;5897;42.640;23.310;2023-02-19T00:42:37;94109.88;;;8.75;58.68
11682;BME280;5897;42.640;23.310;2023-02-19T00:45:06;94136.16;;;8.68;58.70
11682;BME280;5897;42.640;23.310;2023-02-19T00:47:33;94127.03;;;8.62;58.57
11682;BME280;5897;42.640;23.310;2023-02-19T00:50:00;94134.25;;;8.42;62.48
11682;BME280;5897;42.640;23.310;2023-02-19T00:52:26;94132.66;;;8.44;59.31
11682;BME280;5897;42.640;23.310;2023-02-19T00:54:53;94124.47;;;8.28;58.76
11682;BME280;5897;42.640;23.310;2023-02-19T00:57:20;94122.16;;;8.27;58.45
11682;BME280;5897;42.640;23.310;2023-02-19T00:59:47;94113.66;;;8.32;58.54
11682;BME280;5897;42.640;23.310;2023-02-19T01:02:15;94104.81;;;8.54;57.44
11682;BME280;5897;42.640;23.310;2023-02-19T01:04:42;94097.06;;;8.60;57.09
11682;BME280;5897;42.640;23.310;2023-02-19T01:07:09;94096.06;;;8.73;55.96
11682;BME280;5897;42.640;23.310;2023-02-19T01:09:36;94102.53;;;8.76;56.03
11682;BME280;5897;42.640;23.310;2023-02-19T01:12:03;94085.41;;;8.66;56.87
11682;BME280;5897;42.640;23.310;2023-02-19T01:14:30;94058.88;;;8.42;57.37
11682;BME280;5897;42.640;23.310;2023-02-19T01:16:57;94109.41;;;8.57;56.71
11682;BME280;5897;42.640;23.310;2023-02-19T01:19:25;94088.34;;;8.75;56.18
11682;BME280;5897;42.640;23.310;2023-02-19T01:21:52;94067.66;;;8.69;56.25
11682;BME280;5897;42.640;23.310;2023-02-19T01:24:19;94097.47;;;8.58;56.66
11682;BME280;5897;42.640;23.310;2023-02-19T01:26:46;94103.16;;;8.37;57.91
11682;BME280;5897;42.640;23.310;2023-02-19T01:29:12;94106.41;;;8.25;58.30
11682;BME280;5897;42.640;23.310;2023-02-19T01:31:39;94117.25;;;8.22;58.58
11682;BME280;5897;42.640;23.310;2023-02-19T01:34:09;94137.16;;;8.28;58.35
11682;BME280;5897;42.640;23.310;2023-02-19T01:36:37;94140.41;;;8.12;58.69
11682;BME280;5897;42.640;23.310;2023-02-19T01:39:05;94132.63;;;8.21;57.92
11682;BME280;5897;42.640;23.310;2023-02-19T01:41:35;94142.72;;;8.14;58.13
11682;BME280;5897;42.640;23.310;2023-02-19T01:44:04;94149.22;;;8.16;58.17
11682;BME280;5897;42.640;23.310;2023-02-19T01:46:33;94150.22;;;7.66;59.71
11682;BME280;5897;42.640;23.310;2023-02-19T01:49:04;94149.34;;;7.76;59.83
11682;BME280;5897;42.640;23.310;2023-02-19T01:51:33;94162.06;;;7.72;60.20
11682;BME280;5897;42.640;23.310;2023-02-19T01:54:04;94176.63;;;7.74;60.50
11682;BME280;5897;42.640;23.310;2023-02-19T01:56:33;94168.03;;;7.86;59.82
11682;BME280;5897;42.640;23.310;2023-02-19T01:59:02;94148.94;;;8.07;58.56
11682;BME280;5897;42.640;23.310;2023-02-19T02:01:30;94166.94;;;8.10;58.27
11682;BME280;5897;42.640;23.310;2023-02-19T02:03:57;94165.06;;;8.07;58.50
11682;BME280;5897;42.640;23.310;2023-02-19T02:06:26;94155.09;;;8.04;58.51
11682;BME280;5897;42.640;23.310;2023-02-19T02:08:57;94129.41;;;8.30;57.37
11682;BME280;5897;42.640;23.310;2023-02-19T02:11:44;94117.00;;;8.39;56.41
11682;BME280;5897;42.640;23.310;2023-02-19T02:14:12;94110.16;;;8.58;55.58
11682;BME280;5897;42.640;23.310;2023-02-19T02:16:48;94133.94;;;8.36;56.66
11682;BME280;5897;42.640;23.310;2023-02-19T02:19:31;94137.81;;;8.35;56.76
11682;BME280;5897;42.640;23.310;2023-02-19T02:22:09;94149.75;;;8.34;56.82
11682;BME280;5897;42.640;23.310;2023-02-19T02:24:52;94144.66;;;8.40;56.84
11682;BME280;5897;42.640;23.310;2023-02-19T02:27:37;94151.16;;;8.42;56.44
11682;BME280;5897;42.640;23.310;2023-02-19T02:30:15;94149.69;;;8.38;56.98
11682;BME280;5897;42.640;23.310;2023-02-19T02:32:44;94139.78;;;8.31;56.94
11682;BME280;5897;42.640;23.310;2023-02-19T02:35:20;94153.00;;;8.22;57.67
11682;BME280;5897;42.640;23.310;2023-02-19T02:37:49;94143.00;;;8.19;57.72
11682;BME280;5897;42.640;23.310;2023-02-19T02:40:17;94156.38;;;8.26;57.42
11682;BME280;5897;42.640;23.310;2023-02-19T02:42:45;94147.59;;;8.19;57.65
11682;BME280;5897;42.640;23.310;2023-02-19T02:45:25;94159.69;;;8.07;57.65
11682;BME280;5897;42.640;23.310;2023-02-19T02:48:06;94157.31;;;7.83;59.88
11682;BME280;5897;42.640;23.310;2023-02-19T02:50:37;94156.13;;;7.84;60.08
11682;BME280;5897;42.640;23.310;2023-02-19T02:53:09;94145.06;;;7.78;62.91
11682;BME280;5897;42.640;23.310;2023-02-19T02:55:54;94136.28;;;7.74;65.50
11682;BME280;5897;42.640;23.310;2023-02-19T02:58:23;94155.88;;;7.75;63.07
11682;BME280;5897;42.640;23.310;2023-02-19T03:00:56;94146.31;;;7.70;64.69
11682;BME280;5897;42.640;23.310;2023-02-19T03:03:43;94145.97;;;7.68;62.88
11682;BME280;5897;42.640;23.310;2023-02-19T03:06:14;94160.19;;;7.69;63.69
11682;BME280;5897;42.640;23.310;2023-02-19T03:08:44;94150.50;;;7.75;62.65
11682;BME280;5897;42.640;23.310;2023-02-19T03:11:14;94151.19;;;7.82;60.57
11682;BME280;5897;42.640;23.310;2023-02-19T03:14:03;94145.69;;;7.59;61.72
11682;BME280;5897;42.640;23.310;2023-02-19T03:16:54;94162.94;;;7.25;62.99
11682;BME280;5897;42.640;23.310;2023-02-19T03:19:42;94150.22;;;7.32;62.31
11682;BME280;5897;42.640;23.310;2023-02-19T03:22:13;94169.38;;;7.34;62.61
11682;BME280;5897;42.640;23.310;2023-02-19T03:24:48;94169.44;;;7.27;63.10
11682;BME280;5897;42.640;23.310;2023-02-19T03:27:37;94175.78;;;7.07;63.92
11682;BME280;5897;42.640;23.310;2023-02-19T03:30:09;94189.97;;;7.07;64.15
11682;BME280;5897;42.640;23.310;2023-02-19T03:32:41;94187.88;;;7.29;63.55
11682;BME280;5897;42.640;23.310;2023-02-19T03:35:13;94196.91;;;7.45;62.07
11682;BME280;5897;42.640;23.310;2023-02-19T03:37:44;94184.09;;;7.19;62.82
11682;BME280;5897;42.640;23.310;2023-02-19T03:40:12;94186.53;;;7.07;62.85
11682;BME280;5897;42.640;23.310;2023-02-19T03:42:42;94192.81;;;7.30;62.47
11682;BME280;5897;42.640;23.310;2023-02-19T03:45:35;94194.72;;;7.33;62.27
11682;BME280;5897;42.640;23.310;2023-02-19T03:48:18;94164.13;;;7.24;62.16
11682;BME280;5897;42.640;23.310;2023-02-19T03:50:53;94197.00;;;7.38;62.20
11682;BME280;5897;42.640;23.310;2023-02-19T03:53:26;94193.38;;;7.15;63.36
11682;BME280;5897;42.640;23.310;2023-02-19T03:56:02;94192.91;;;7.23;63.24
11682;BME280;5897;42.640;23.310;2023-02-19T03:58:34;94208.63;;;7.25;63.23
11682;BME280;5897;42.640;23.310;2023-02-19T04:01:07;94203.09;;;7.42;62.13
11682;BME280;5897;42.640;23.310;2023-02-19T04:03:42;94211.63;;;7.30;62.31
11682;BME280;5897;42.640;23.310;2023-02-19T04:06:12;94215.91;;;7.24;63.09
11682;BME280;5897;42.640;23.310;2023-02-19T04:08:43;94202.25;;;7.08;63.42
11682;BME280;5897;42.640;23.310;2023-02-19T04:11:13;94219.69;;;7.30;63.00
11682;BME280;5897;42.640;23.310;2023-02-19T04:13:44;94224.72;;;7.28;62.33
11682;BME280;5897;42.640;23.310;2023-02-19T04:16:16;94218.31;;;7.15;63.29
11682;BME280;5897;42.640;23.310;2023-02-19T04:18:46;94224.31;;;7.30;62.38
11682;BME280;5897;42.640;23.310;2023-02-19T04:21:14;94210.31;;;7.08;62.80
11682;BME280;5897;42.640;23.310;2023-02-19T04:23:43;94226.69;;;7.21;63.02
11682;BME280;5897;42.640;23.310;2023-02-19T04:26:12;94239.00;;;7.18;63.20
11682;BME280;5897;42.640;23.310;2023-02-19T04:28:41;94232.13;;;7.14;63.58
11682;BME280;5897;42.640;23.310;2023-02-19T04:31:09;94215.56;;;7.22;62.99
11682;BME280;5897;42.640;23.310;2023-02-19T04:33:36;94227.75;;;7.34;62.62
11682;BME280;5897;42.640;23.310;2023-02-19T04:36:06;94229.19;;;7.42;62.41
11682;BME280;5897;42.640;23.310;2023-02-19T04:41:02;94234.38;;;7.63;61.32
11682;BME280;5897;42.640;23.310;2023-02-19T04:43:29;94238.59;;;7.64;61.22
11682;BME280;5897;42.640;23.310;2023-02-19T04:45:58;94234.34;;;7.66;61.15
11682;BME280;5897;42.640;23.310;2023-02-19T04:48:26;94228.16;;;7.69;60.72
11682;BME280;5897;42.640;23.310;2023-02-19T04:50:52;94219.44;;;7.58;60.92
11682;BME280;5897;42.640;23.310;2023-02-19T04:53:21;94230.72;;;7.43;61.75
11682;BME280;5897;42.640;23.310;2023-02-19T04:55:47;94229.72;;;7.67;61.06
11682;BME280;5897;42.640;23.310;2023-02-19T04:58:18;94235.09;;;7.67;60.77
11682;BME280;5897;42.640;23.310;2023-02-19T05:00:44;94235.09;;;7.67;60.58
11682;BME280;5897;42.640;23.310;2023-02-19T05:03:11;94240.44;;;7.70;60.66
11682;BME280;5897;42.640;23.310;2023-02-19T05:05:38;94235.06;;;7.70;61.14
11682;BME280;5897;42.640;23.310;2023-02-19T05:08:05;94238.19;;;7.65;61.42
11682;BME280;5897;42.640;23.310;2023-02-19T05:10:33;94244.94;;;7.80;60.84
11682;BME280;5897;42.640;23.310;2023-02-19T05:13:00;94244.84;;;8.54;60.53
11682;BME280;5897;42.640;23.310;2023-02-19T05:15:27;94238.47;;;9.21;60.47
11682;BME280;5897;42.640;23.310;2023-02-19T05:17:53;94227.81;;;9.79;57.17
11682;BME280;5897;42.640;23.310;2023-02-19T05:20:20;94237.91;;;10.18;62.32
11682;BME280;5897;42.640;23.310;2023-02-19T05:22:47;94238.22;;;10.59;55.66
11682;BME280;5897;42.640;23.310;2023-02-19T05:25:14;94231.69;;;10.76;55.04
11682;BME280;5897;42.640;23.310;2023-02-19T05:27:43;94237.53;;;10.90;53.35
11682;BME280;5897;42.640;23.310;2023-02-19T05:30:10;94238.75;;;11.21;54.01
11682;BME280;5897;42.640;23.310;2023-02-19T05:32:37;94246.84;;;11.21;52.48
11682;BME280;5897;42.640;23.310;2023-02-19T05:35:05;94237.03;;;11.27;51.44
11682;BME280;5897;42.640;23.310;2023-02-19T05:37:32;94253.97;;;11.31;50.06
11682;BME280;5897;42.640;23.310;2023-02-19T05:39:58;94246.00;;;11.40;50.04
11682;BME280;5897;42.640;23.310;2023-02-19T05:42:25;94248.63;;;11.28;49.87
11682;BME280;5897;42.640;23.310;2023-02-19T05:44:53;94261.91;;;11.38;49.36
11682;BME280;5897;42.640;23.310;2023-02-19T05:47:20;94252.19;;;11.25;49.82
11682;BME280;5897;42.640;23.310;2023-02-19T05:49:47;94254.47;;;11.26;49.90
11682;BME280;5897;42.640;23.310;2023-02-19T05:52:14;94252.44;;;11.30;49.72
11682;BME280;5897;42.640;23.310;2023-02-19T05:54:40;94254.28;;;11.33;52.53
11682;BME280;5897;42.640;23.310;2023-02-19T05:57:10;94254.81;;;11.44;51.75
11682;BME280;5897;42.640;23.310;2023-02-19T05:59:37;94264.88;;;11.44;50.83
11682;BME280;5897;42.640;23.310;2023-02-19T06:02:05;94265.97;;;11.46;50.70
11682;BME280;5897;42.640;23.310;2023-02-19T06:04:32;94272.81;;;11.51;51.18
11682;BME280;5897;42.640;23.310;2023-02-19T06:06:59;94273.56;;;11.51;50.35
11682;BME280;5897;42.640;23.310;2023-02-19T06:09:26;94274.41;;;11.48;50.71
11682;BME280;5897;42.640;23.310;2023-02-19T06:11:52;94277.22;;;11.45;51.21
11682;BME280;5897;42.640;23.310;2023-02-19T06:14:19;94284.13;;;11.46;51.17
11682;BME280;5897;42.640;23.310;2023-02-19T06:16:46;94297.06;;;11.54;50.75
11682;BME280;5897;42.640;23.310;2023-02-19T06:19:14;94280.34;;;11.43;50.58
11682;BME280;5897;42.640;23.310;2023-02-19T06:21:41;94295.19;;;11.51;50.67
11682;BME280;5897;42.640;23.310;2023-02-19T06:24:08;94295.53;;;11.37;50.83
11682;BME280;5897;42.640;23.310;2023-02-19T06:26:35;94297.34;;;11.44;50.24
11682;BME280;5897;42.640;23.310;2023-02-19T06:29:02;94288.63;;;11.36;50.46
11682;BME280;5897;42.640;23.310;2023-02-19T06:31:29;94296.56;;;11.43;50.05
11682;BME280;5897;42.640;23.310;2023-02-19T06:33:56;94301.31;;;11.55;49.78
11682;BME280;5897;42.640;23.310;2023-02-19T06:36:24;94304.19;;;11.48;49.78
11682;BME280;5897;42.640;23.310;2023-02-19T06:38:51;94297.50;;;11.52;49.44
11682;BME280;5897;42.640;23.310;2023-02-19T06:41:18;94304.63;;;11.63;49.15
11682;BME280;5897;42.640;23.310;2023-02-19T06:43:45;94292.78;;;11.73;48.48
11682;BME280;5897;42.640;23.310;2023-02-19T06:46:12;94297.63;;;11.65;48.72
11682;BME280;5897;42.640;23.310;2023-02-19T06:48:40;94298.22;;;11.73;48.51
11682;BME280;5897;42.640;23.310;2023-02-19T06:51:10;94298.53;;;11.75;48.53
11682;BME280;5897;42.640;23.310;2023-02-19T06:53:38;94282.28;;;11.75;48.64
11682;BME280;5897;42.640;23.310;2023-02-19T06:56:06;94294.25;;;12.05;48.61
11682;BME280;5897;42.640;23.310;2023-02-19T06:58:46;94298.13;;;12.20;48.12
11682;BME280;5897;42.640;23.310;2023-02-19T07:01:13;94299.91;;;12.27;47.39
11682;BME280;5897;42.640;23.310;2023-02-19T07:03:40;94307.66;;;12.25;49.33
11682;BME280;5897;42.640;23.310;2023-02-19T07:06:07;94312.25;;;12.28;46.78
11682;BME280;5897;42.640;23.310;2023-02-19T07:08:34;94308.50;;;12.38;46.19
11682;BME280;5897;42.640;23.310;2023-02-19T07:11:02;94314.75;;;12.35;46.56
11682;BME280;5897;42.640;23.310;2023-02-19T07:13:29;94313.25;;;12.62;45.62
11682;BME280;5897;42.640;23.310;2023-02-19T07:15:58;94311.19;;;12.66;46.33
11682;BME280;5897;42.640;23.310;2023-02-19T07:18:25;94316.50;;;12.70;46.69
11682;BME280;5897;42.640;23.310;2023-02-19T07:20:52;94312.72;;;12.80;46.58
11682;BME280;5897;42.640;23.310;2023-02-19T07:23:18;94314.59;;;12.83;46.32
11682;BME280;5897;42.640;23.310;2023-02-19T07:25:45;94302.78;;;12.89;46.14
11682;BME280;5897;42.640;23.310;2023-02-19T07:28:13;94285.75;;;12.89;47.55
11682;BME280;5897;42.640;23.310;2023-02-19T07:30:40;94306.84;;;13.22;45.17
11682;BME280;5897;42.640;23.310;2023-02-19T07:33:09;94302.84;;;13.39;44.30
11682;BME280;5897;42.640;23.310;2023-02-19T07:35:36;94295.13;;;13.38;44.08
11682;BME280;5897;42.640;23.310;2023-02-19T07:38:03;94288.09;;;13.53;43.53
11682;BME280;5897;42.640;23.310;2023-02-19T07:40:29;94291.22;;;13.51;44.04
11682;BME280;5897;42.640;23.310;2023-02-19T07:42:58;94286.31;;;13.71;43.34
11682;BME280;5897;42.640;23.310;2023-02-19T07:45:26;94280.00;;;13.87;42.82
11682;BME280;5897;42.640;23.310;2023-02-19T07:47:53;94282.03;;;13.95;42.24
11682;BME280;5897;42.640;23.310;2023-02-19T07:50:20;94271.28;;;13.92;42.05
11682;BME280;5897;42.640;23.310;2023-02-19T07:52:47;94281.31;;;13.82;42.75
11682;BME280;5897;42.640;23.310;2023-02-19T07:55:13;94284.13;;;13.79;43.26
11682;BME280;5897;42.640;23.310;2023-02-19T07:57:40;94275.94;;;14.04;42.77
11682;BME280;5897;42.640;23.310;2023-02-19T08:00:08;94274.44;;;14.37;41.52
11682;BME280;5897;42.640;23.310;2023-02-19T08:02:36;94265.75;;;14.51;40.55
11682;BME280;5897;42.640;23.310;2023-02-19T08:05:21;94278.16;;;14.52;40.68
11682;BME280;5897;42.640;23.310;2023-02-19T08:07:47;94275.38;;;14.43;41.37
11682;BME280;5897;42.640;23.310;2023-02-19T08:10:14;94259.88;;;14.52;40.66
11682;BME280;5897;42.640;23.310;2023-02-19T08:12:59;94259.59;;;14.81;40.72
11682;BME280;5897;42.640;23.310;2023-02-19T08:15:47;94275.16;;;15.02;41.19
11682;BME280;5897;42.640;23.310;2023-02-19T08:18:16;94270.78;;;15.35;40.56
11682;BME280;5897;42.640;23.310;2023-02-19T08:20:43;94246.63;;;15.46;42.21
11682;BME280;5897;42.640;23.310;2023-02-19T08:23:11;94259.38;;;15.58;39.61
11682;BME280;5897;42.640;23.310;2023-02-19T08:25:38;94267.94;;;15.38;39.54
11682;BME280;5897;42.640;23.310;2023-02-19T08:28:06;94259.94;;;15.44;39.43
11682;BME280;5897;42.640;23.310;2023-02-19T08:30:34;94269.94;;;15.47;40.24
11682;BME280;5897;42.640;23.310;2023-02-19T08:33:03;94266.53;;;15.64;39.45
11682;BME280;5897;42.640;23.310;2023-02-19T08:35:32;94258.94;;;15.68;38.64
11682;BME280;5897;42.640;23.310;2023-02-19T08:38:00;94258.94;;;15.68;39.10
11682;BME280;5897;42.640;23.310;2023-02-19T08:40:26;94250.63;;;15.72;38.46
11682;BME280;5897;42.640;23.310;2023-02-19T08:42:53;94255.47;;;15.68;38.79
11682;BME280;5897;42.640;23.310;2023-02-19T08:45:20;94237.03;;;15.81;38.83
11682;BME280;5897;42.640;23.310;2023-02-19T08:47:48;94236.59;;;15.82;38.55
11682;BME280;5897;42.640;23.310;2023-02-19T08:50:15;94251.00;;;16.01;37.57
11682;BME280;5897;42.640;23.310;2023-02-19T08:52:43;94239.78;;;16.17;37.95
11682;BME280;5897;42.640;23.310;2023-02-19T08:55:10;94227.53;;;16.48;36.85
11682;BME280;5897;42.640;23.310;2023-02-19T08:57:37;94226.47;;;16.37;36.64
11682;BME280;5897;42.640;23.310;2023-02-19T09:00:05;94233.88;;;16.36;37.55
11682;BME280;5897;42.640;23.310;2023-02-19T09:02:33;94221.66;;;16.41;37.52
11682;BME280;5897;42.640;23.310;2023-02-19T09:05:00;94238.00;;;16.50;37.76
11682;BME280;5897;42.640;23.310;2023-02-19T09:07:27;94216.63;;;16.48;39.66
11682;BME280;5897;42.640;23.310;2023-02-19T09:09:55;94210.56;;;16.53;38.31
11682;BME280;5897;42.640;23.310;2023-02-19T09:12:23;94214.66;;;16.58;37.65
11682;BME280;5897;42.640;23.310;2023-02-19T09:14:50;94205.44;;;16.46;38.58
11682;BME280;5897;42.640;23.310;2023-02-19T09:17:17;94225.09;;;16.68;38.06
11682;BME280;5897;42.640;23.310;2023-02-19T09:19:44;94200.94;;;16.85;37.78
11682;BME280;5897;42.640;23.310;2023-02-19T09:22:11;94204.63;;;16.73;37.97
11682;BME280;5897;42.640;23.310;2023-02-19T09:24:37;94199.63;;;16.71;37.08
11682;BME280;5897;42.640;23.310;2023-02-19T09:27:06;94204.91;;;16.84;36.82
11682;BME280;5897;42.640;23.310;2023-02-19T09:29:32;94200.38;;;16.72;37.07
11682;BME280;5897;42.640;23.310;2023-02-19T09:32:00;94204.50;;;16.67;37.18
11682;BME280;5897;42.640;23.310;2023-02-19T09:34:27;94203.78;;;16.99;36.48
11682;BME280;5897;42.640;23.310;2023-02-19T09:36:54;94210.53;;;17.22;35.95
11682;BME280;5897;42.640;23.310;2023-02-19T09:39:21;94201.75;;;17.18;35.23
11682;BME280;5897;42.640;23.310;2023-02-19T09:41:50;94202.88;;;17.35;35.18
11682;BME280;5897;42.640;23.310;2023-02-19T09:44:26;94202.78;;;17.29;34.66
11682;BME280;5897;42.640;23.310;2023-02-19T09:46:55;94200.72;;;17.48;34.28
11682;BME280;5897;42.640;23.310;2023-02-19T09:49:28;94179.75;;;17.54;34.29
11682;BME280;5897;42.640;23.310;2023-02-19T09:52:00;94201.56;;;17.86;34.19
11682;BME280;5897;42.640;23.310;2023-02-19T09:54:30;94200.19;;;18.29;33.74
11682;BME280;5897;42.640;23.310;2023-02-19T09:57:00;94183.47;;;18.65;32.88
11682;BME280;5897;42.640;23.310;2023-02-19T09:59:32;94178.91;;;18.76;32.58
11682;BME280;5897;42.640;23.310;2023-02-19T10:02:03;94174.97;;;18.92;32.07
11682;BME280;5897;42.640;23.310;2023-02-19T10:04:30;94157.28;;;19.07;31.63
11682;BME280;5897;42.640;23.310;2023-02-19T10:06:58;94155.13;;;19.11;31.90
11682;BME280;5897;42.640;23.310;2023-02-19T10:09:29;94159.53;;;19.38;31.02
11682;BME280;5897;42.640;23.310;2023-02-19T10:11:57;94138.94;;;19.28;31.36
11682;BME280;5897;42.640;23.310;2023-02-19T10:14:31;94150.78;;;19.74;31.39
11682;BME280;5897;42.640;23.310;2023-02-19T10:17:02;94139.78;;;19.68;30.16
11682;BME280;5897;42.640;23.310;2023-02-19T10:19:30;94145.38;;;19.59;31.22
11682;BME280;5897;42.640;23.310;2023-02-19T10:21:57;94139.63;;;19.77;30.42
11682;BME280;5897;42.640;23.310;2023-02-19T10:24:26;94121.25;;;19.83;30.13
11682;BME280;5897;42.640;23.310;2023-02-19T10:26:54;94127.97;;;20.02;30.31
11682;BME280;5897;42.640;23.310;2023-02-19T10:29:21;94127.44;;;20.44;29.77
11682;BME280;5897;42.640;23.310;2023-02-19T10:32:12;94119.59;;;20.31;29.71
11682;BME280;5897;42.640;23.310;2023-02-19T10:34:41;94119.38;;;20.35;29.51
11682;BME280;5897;42.640;23.310;2023-02-19T10:37:10;94105.00;;;20.20;29.40
11682;BME280;5897;42.640;23.310;2023-02-19T10:39:41;94098.88;;;20.30;29.92
11682;BME280;5897;42.640;23.310;2023-02-19T10:42:17;94087.84;;;20.56;29.30
11682;BME280;5897;42.640;23.310;2023-02-19T10:44:47;94085.56;;;20.49;29.42
11682;BME280;5897;42.640;23.310;2023-02-19T10:47:19;94080.13;;;20.85;28.88
11682;BME280;5897;42.640;23.310;2023-02-19T10:49:48;94075.56;;;20.77;28.55
11682;BME280;5897;42.640;23.310;2023-02-19T10:52:19;94072.22;;;20.93;28.39
11682;BME280;5897;42.640;23.310;2023-02-19T10:54:50;94069.81;;;20.75;28.10
11682;BME280;5897;42.640;23.310;2023-02-19T10:57:25;94065.03;;;20.70;28.58
11682;BME280;5897;42.640;23.310;2023-02-19T10:59:56;94068.13;;;21.14;28.41
11682;BME280;5897;42.640;23.310;2023-02-19T11:02:25;94056.75;;;21.32;28.20
11682;BME280;5897;42.640;23.310;2023-02-19T11:05:04;94052.19;;;21.23;28.33
11682;BME280;5897;42.640;23.310;2023-02-19T11:07:32;94051.47;;;21.28;27.94
11682;BME280;5897;42.640;23.310;2023-02-19T11:09:59;94040.97;;;21.32;28.13
11682;BME280;5897;42.640;23.310;2023-02-19T11:12:29;94037.72;;;21.76;27.40
11682;BME280;5897;42.640;23.310;2023-02-19T11:15:03;94032.03;;;21.96;26.65
11682;BME280;5897;42.640;23.310;2023-02-19T11:17:40;94027.56;;;22.20;26.65
11682;BME280;5897;42.640;23.310;2023-02-19T11:20:13;94017.81;;;22.36;26.55
11682;BME280;5897;42.640;23.310;2023-02-19T11:22:42;94012.59;;;22.82;26.00
11682;BME280;5897;42.640;23.310;2023-02-19T11:25:19;94012.31;;;23.18;25.31
11682;BME280;5897;42.640;23.310;2023-02-19T11:27:54;94008.47;;;23.49;24.71
11682;BME280;5897;42.640;23.310;2023-02-19T11:30:39;94000.78;;;23.20;24.86
11682;BME280;5897;42.640;23.310;2023-02-19T11:33:25;93992.88;;;23.57;24.49
11682;BME280;5897;42.640;23.310;2023-02-19T11:35:58;93980.63;;;24.04;23.78
11682;BME280;5897;42.640;23.310;2023-02-19T11:38:28;93982.44;;;24.31;23.47
11682;BME280;5897;42.640;23.310;2023-02-19T11:41:03;93978.44;;;24.67;22.75
11682;BME280;5897;42.640;23.310;2023-02-19T11:43:54;93974.69;;;23.89;23.96
11682;BME280;5897;42.640;23.310;2023-02-19T11:46:31;93986.78;;;23.75;24.22
11682;BME280;5897;42.640;23.310;2023-02-19T11:49:19;93975.72;;;23.80;24.30
11682;BME280;5897;42.640;23.310;2023-02-19T11:52:05;93970.56;;;23.55;24.65
11682;BME280;5897;42.640;23.310;2023-02-19T11:54:49;93968.00;;;23.68;24.18
11682;BME280;5897;42.640;23.310;2023-02-19T11:57:34;93963.88;;;23.39;24.47
11682;BME280;5897;42.640;23.310;2023-02-19T12:00:20;93964.66;;;23.86;24.03
11682;BME280;5897;42.640;23.310;2023-02-19T12:03:27;93955.91;;;24.22;23.46
11682;BME280;5897;42.640;23.310;2023-02-19T12:06:12;93958.53;;;24.98;22.25
11682;BME280;5897;42.640;23.310;2023-02-19T12:09:10;93947.75;;;24.94;22.81
11682;BME280;5897;42.640;23.310;2023-02-19T12:11:50;93944.88;;;25.29;21.76
11682;BME280;5897;42.640;23.310;2023-02-19T12:14:40;93941.38;;;25.71;21.94
11682;BME280;5897;42.640;23.310;2023-02-19T12:17:17;93936.13;;;26.05;21.23
11682;BME280;5897;42.640;23.310;2023-02-19T12:20:02;93923.75;;;26.24;21.19
11682;BME280;5897;42.640;23.310;2023-02-19T12:22:43;93927.31;;;26.56;20.77
11682;BME280;5897;42.640;23.310;2023-02-19T12:25:21;93928.19;;;26.77;20.15
11682;BME280;5897;42.640;23.310;2023-02-19T12:28:07;93925.00;;;27.12;19.87
11682;BME280;5897;42.640;23.310;2023-02-19T12:33:42;93905.09;;;27.40;19.54
11682;BME280;5897;42.640;23.310;2023-02-19T12:36:18;93901.66;;;26.95;20.22
11682;BME280;5897;42.640;23.310;2023-02-19T12:38:55;93896.84;;;26.82;20.01
11682;BME280;5897;42.640;23.310;2023-02-19T12:41:34;93894.41;;;27.05;19.75
11682;BME280;5897;42.640;23.310;2023-02-19T12:44:07;93888.84;;;26.92;20.20
11682;BME280;5897;42.640;23.310;2023-02-19T12:46:37;93889.06;;;27.07;19.89
11682;BME280;5897;42.640;23.310;2023-02-19T12:49:08;93880.13;;;27.27;19.84
11682;BME280;5897;42.640;23.310;2023-02-19T12:51:40;93873.28;;;27.41;19.36
11682;BME280;5897;42.640;23.310;2023-02-19T12:54:13;93867.00;;;27.74;19.08
11682;BME280;5897;42.640;23.310;2023-02-19T12:56:47;93864.34;;;27.81;19.13
11682;BME280;5897;42.640;23.310;2023-02-19T12:59:21;93850.94;;;27.93;18.98
11682;BME280;5897;42.640;23.310;2023-02-19T13:01:51;93854.28;;;28.12;18.82
11682;BME280;5897;42.640;23.310;2023-02-19T13:04:25;93849.41;;;28.25;18.39
11682;BME280;5897;42.640;23.310;2023-02-19T13:06:57;93848.88;;;28.47;18.51
11682;BME280;5897;42.640;23.310;2023-02-19T13:09:32;93847.41;;;28.46;18.00
11682;BME280;5897;42.640;23.310;2023-02-19T13:12:03;93842.25;;;28.50;18.13
11682;BME280;5897;42.640;23.310;2023-02-19T13:14:33;93838.19;;;28.51;17.89
11682;BME280;5897;42.640;23.310;2023-02-19T13:17:15;93836.41;;;28.41;18.09
11682;BME280;5897;42.640;23.310;2023-02-19T13:19:45;93828.78;;;28.62;17.63
11682;BME280;5897;42.640;23.310;2023-02-19T13:22:19;93826.81;;;28.70;17.73
11682;BME280;5897;42.640;23.310;2023-02-19T13:25:08;93823.59;;;28.58;17.73
11682;BME280;5897;42.640;23.310;2023-02-19T13:30:54;93810.38;;;28.79;17.90
11682;BME280;5897;42.640;23.310;2023-02-19T13:33:33;93802.88;;;28.95;17.37